Time;durP1;ratioP1;P1;durP2;ratioP2;P2;SDS_P1;SDS_P2;PMS_P1;PMS_P2;Temp;Humidity;BMP_temperature;BMP_pressure;BME280_temperature;BME280_humidity;BME280_pressure;Samples;Min_cycle;Max_cycle;Signal;HPM_P1;HPM_P2
2021/09/05 00:02:23;;;;;;;16.27;10.32;;;;;;;9.04;69.31;101053.80;1717660;82;27426;-60
2021/09/05 00:04:49;;;;;;;19.40;11.33;;;;;;;9.05;69.72;101054.09;1714090;82;25638;-59
2021/09/05 00:07:15;;;;;;;20.90;12.35;;;;;;;9.05;69.72;101052.73;1714619;82;25954;-60
2021/09/05 00:09:42;;;;;;;16.85;10.90;;;;;;;9.08;70.11;101060.28;1719483;82;25781;-59
2021/09/05 00:12:10;;;;;;;21.73;11.45;;;;;;;9.06;70.06;101057.03;1716511;82;26048;-60
2021/09/05 00:14:36;;;;;;;20.08;11.40;;;;;;;9.08;70.00;101050.83;1718365;83;27486;-60
2021/09/05 00:17:03;;;;;;;21.95;11.75;;;;;;;9.05;69.67;101054.88;1718318;82;25861;-60
2021/09/05 00:19:30;;;;;;;22.70;13.53;;;;;;;9.03;69.56;101054.91;1715647;82;26437;-60
2021/09/05 00:21:56;;;;;;;26.07;14.73;;;;;;;8.98;69.04;101060.59;1716656;82;25717;-59
2021/09/05 00:24:23;;;;;;;29.27;13.90;;;;;;;8.95;69.20;101057.64;1718443;82;25897;-60
2021/09/05 00:45:06;;;;;;;17.75;11.75;;;;;;;8.62;69.63;101055.94;1748386;80;25786;-61
2021/09/05 00:47:33;;;;;;;20.55;12.55;;;;;;;8.59;69.99;101065.38;1748844;81;25842;-61
2021/09/05 00:49:59;;;;;;;20.62;12.28;;;;;;;8.58;70.40;101070.52;1754070;80;26080;-61
2021/09/05 00:52:27;;;;;;;17.10;10.60;;;;;;;8.57;70.32;101073.48;1751010;81;25886;-61
2021/09/05 00:58:35;;;;;;;16.62;10.32;;;;;;;8.55;70.19;101070.27;1739822;81;25825;-59
2021/09/05 01:01:02;;;;;;;21.37;11.10;;;;;;;8.50;70.21;101068.39;1752286;81;25724;-60
2021/09/05 01:03:29;;;;;;;15.10;10.35;;;;;;;8.48;70.33;101071.91;1737061;81;25522;-60
2021/09/05 01:05:55;;;;;;;20.45;11.00;;;;;;;8.46;70.63;101072.70;1733597;81;25461;-60
2021/09/05 01:08:22;;;;;;;15.58;10.15;;;;;;;8.44;70.59;101074.08;1744948;81;27467;-61
2021/09/05 01:10:48;;;;;;;18.37;10.55;;;;;;;8.42;70.77;101077.02;1747756;81;25778;-61
2021/09/05 01:13:15;;;;;;;18.27;10.28;;;;;;;8.40;70.72;101081.88;1749893;80;25882;-60
2021/09/05 01:15:41;;;;;;;26.55;11.18;;;;;;;8.37;70.80;101079.17;1746365;81;25577;-61
2021/09/05 01:18:07;;;;;;;18.75;10.03;;;;;;;8.34;70.37;101078.41;1747414;81;26135;-61
2021/09/05 01:20:34;;;;;;;16.57;10.82;;;;;;;8.32;70.75;101075.15;1747840;81;28070;-61
2021/09/05 01:23:01;;;;;;;16.50;10.60;;;;;;;8.31;70.84;101084.33;1751074;81;25843;-61
2021/09/05 01:25:27;;;;;;;17.55;9.93;;;;;;;8.29;70.87;101088.37;1737558;80;25542;-61
2021/09/05 01:27:53;;;;;;;17.42;10.30;;;;;;;8.27;71.07;101091.88;1732616;81;25756;-60
2021/09/05 01:30:20;;;;;;;16.42;10.40;;;;;;;8.23;70.98;101084.34;1739578;81;25500;-61
2021/09/05 01:32:46;;;;;;;17.32;10.40;;;;;;;8.24;70.70;101086.52;1732665;81;27518;-60
2021/09/05 01:35:12;;;;;;;16.12;10.18;;;;;;;8.21;70.96;101085.16;1739818;81;25509;-60
2021/09/05 01:37:39;;;;;;;17.90;10.08;;;;;;;8.20;70.72;101090.27;1735731;80;25713;-60
2021/09/05 01:40:06;;;;;;;17.17;10.40;;;;;;;8.18;71.06;101092.98;1750025;80;26208;-60
2021/09/05 01:42:32;;;;;;;17.40;10.25;;;;;;;8.13;71.15;101100.53;1745391;81;25571;-60
2021/09/05 01:44:59;;;;;;;18.10;9.50;;;;;;;8.12;71.53;101100.80;1729685;81;27957;-59
2021/09/05 01:47:25;;;;;;;17.32;10.40;;;;;;;8.11;71.35;101109.98;1752191;81;25752;-60
2021/09/05 01:49:51;;;;;;;16.77;10.40;;;;;;;8.10;71.42;101112.41;1713339;81;26191;-59
2021/09/05 01:52:18;;;;;;;16.15;10.53;;;;;;;8.07;71.40;101111.08;1692529;84;25813;-60
2021/09/05 08:44:24;;;;;;;1.47;1.00;;;;;;;26.77;35.83;101400.97;1712695;80;26641;-56
2021/09/05 08:46:55;;;;;;;3.95;1.42;;;;;;;26.93;34.94;101406.91;1714431;80;25790;-58
2021/09/05 08:49:34;;;;;;;9.35;4.35;;;;;;;27.10;34.67;101407.33;1727309;80;25902;-62
2021/09/05 08:52:01;;;;;;;1.75;1.40;;;;;;;27.36;34.73;101402.80;1718595;81;25929;-70
2021/09/05 08:54:28;;;;;;;1.02;0.85;;;;;;;27.61;34.14;101406.74;1719514;80;26445;-71
2021/09/05 08:56:55;;;;;;;1.30;0.90;;;;;;;27.82;33.73;101403.92;1732256;81;27416;-70
2021/09/05 08:59:23;;;;;;;0.98;0.72;;;;;;;28.01;33.01;101413.01;1734635;81;25696;-65
2021/09/05 09:01:56;;;;;;;1.70;0.90;;;;;;;28.06;32.48;101411.20;1729347;80;25945;-75
2021/09/05 09:04:23;;;;;;;1.27;0.95;;;;;;;28.24;32.67;101406.97;1692350;80;25963;-73
2021/09/05 09:06:50;;;;;;;3.92;1.17;;;;;;;28.54;32.07;101407.01;1720384;80;25782;-72
2021/09/05 09:09:17;;;;;;;0.98;0.75;;;;;;;28.66;31.64;101399.63;1715386;80;27478;-75
2021/09/05 09:11:56;;;;;;;2.62;1.15;;;;;;;28.19;30.38;101408.17;1715307;80;26468;-67
2021/09/05 09:14:42;;;;;;;1.25;1.02;;;;;;;27.37;30.52;101412.70;1710127;82;25987;-72
2021/09/05 09:17:11;;;;;;;1.20;1.00;;;;;;;26.64;30.91;101402.70;1728782;81;25776;-80
2021/09/05 09:20:09;;;;;;;1.75;1.12;;;;;;;26.55;31.95;101408.41;1711225;82;25856;-63
2021/09/05 09:22:36;;;;;;;;;;;;;;;26.89;32.04;101406.73;1711413;82;27493;-58
2021/09/05 09:25:03;;;;;;;2.05;1.45;;;;;;;27.23;31.49;101408.53;1692622;82;25892;-55
2021/09/05 09:27:30;;;;;;;2.22;1.57;;;;;;;27.49;31.63;101400.39;1690149;83;25764;-53
2021/09/05 09:29:57;;;;;;;3.83;1.10;;;;;;;27.69;30.34;101403.55;1713733;83;25768;-52
2021/09/05 09:32:26;;;;;;;1.47;1.00;;;;;;;27.42;29.71;101409.35;1725604;82;25835;-51
2021/09/05 09:34:53;;;;;;;1.57;1.27;;;;;;;26.82;29.71;101406.91;1698137;81;27403;-48
2021/09/05 09:37:23;;;;;;;1.60;1.22;;;;;;;26.20;29.89;101403.72;1712155;81;25684;-51
2021/09/05 09:40:02;;;;;;;2.70;1.15;;;;;;;25.70;30.64;101402.84;1687920;82;25714;-50
2021/09/05 09:42:40;;;;;;;2.92;1.52;;;;;;;25.87;31.55;101401.36;1704293;82;26066;-48
2021/09/05 09:45:14;;;;;;;4.95;1.52;;;;;;;26.42;31.85;101391.33;1686289;83;25903;-57
2021/09/05 09:47:52;;;;;;;1.22;0.90;;;;;;;26.96;30.84;101397.02;1686967;83;29605;-52
2021/09/05 09:50:23;;;;;;;1.50;0.80;;;;;;;26.80;29.63;101393.22;1672281;84;25813;-54
2021/09/05 09:52:51;;;;;;;1.42;0.95;;;;;;;26.35;29.08;101401.80;1660062;83;25897;-55
2021/09/05 09:55:19;;;;;;;1.60;0.95;;;;;;;26.40;29.82;101390.33;1659002;85;26516;-58
2021/09/05 10:09:03;;;;;;;2.17;1.02;;;;;;;24.62;30.29;101394.20;1706030;78;25752;-58
2021/09/05 10:11:30;;;;;;;1.82;1.10;;;;;;;23.96;30.82;101389.63;1734830;80;25920;-52
2021/09/05 10:13:58;;;;;;;1.27;0.90;;;;;;;23.46;31.32;101393.23;1741529;81;26275;-51
2021/09/05 10:16:25;;;;;;;1.77;1.10;;;;;;;23.08;32.14;101395.55;1749737;81;27502;-55
2021/09/05 10:18:57;;;;;;;1.37;0.68;;;;;;;23.17;34.28;101398.84;1748789;81;25873;-57
2021/09/05 10:21:24;;;;;;;2.12;0.60;;;;;;;23.92;34.44;101390.15;1725473;81;25827;-57
2021/09/05 10:23:58;;;;;;;0.85;0.70;;;;;;;24.73;33.11;101388.18;1755052;80;26280;-57
2021/09/05 10:26:25;;;;;;;1.87;0.90;;;;;;;25.35;32.17;101386.20;1762221;80;25735;-62
2021/09/05 10:29:13;;;;;;;0.95;0.72;;;;;;;26.09;31.63;101384.88;1733334;80;27480;-64
2021/09/05 10:31:40;;;;;;;2.10;0.60;;;;;;;26.73;30.52;101384.31;1747417;80;25984;-63
2021/09/05 10:34:38;;;;;;;2.65;0.78;;;;;;;27.41;29.73;101384.14;1749065;80;25724;-63
2021/09/05 10:37:13;;;;;;;0.72;0.70;;;;;;;28.07;29.68;101383.00;1745650;81;25939;-63
2021/09/05 10:40:12;;;;;;;0.90;0.60;;;;;;;28.08;27.85;101394.94;1742341;81;25872;-65
2021/09/05 10:50:30;;;;;;;0.60;0.50;;;;;;;27.02;28.74;101392.06;1701975;83;25829;-55
2021/09/05 10:53:16;;;;;;;;;;;;;;;27.78;28.22;101384.27;1712357;83;25771;-56
2021/09/05 10:56:07;;;;;;;1.52;0.70;;;;;;;28.46;27.57;101384.02;1669426;85;25811;-56
2021/09/05 10:58:57;;;;;;;1.12;0.62;;;;;;;28.97;26.89;101374.14;1725674;80;27592;-58
2021/09/05 11:01:34;;;;;;;2.65;0.90;;;;;;;29.51;26.53;101377.06;1780236;79;25871;-57
2021/09/05 11:04:21;;;;;;;2.80;0.75;;;;;;;29.65;25.50;101381.11;1783619;80;25748;-56
2021/09/05 11:07:02;;;;;;;0.70;0.60;;;;;;;29.27;25.51;101384.46;1785436;79;25795;-56
2021/09/05 11:09:34;;;;;;;1.27;0.93;;;;;;;29.28;25.33;101386.05;1788488;80;25766;-56
2021/09/05 11:12:23;;;;;;;2.33;0.57;;;;;;;29.34;25.54;101387.20;1783501;80;29686;-56
2021/09/05 11:14:53;;;;;;;1.57;0.72;;;;;;;29.60;24.94;101384.34;1738651;81;25760;-57
2021/09/05 11:17:33;;;;;;;1.25;0.95;;;;;;;29.63;24.50;101383.52;1743984;80;26477;-56
2021/09/05 11:36:07;;;;;;;1.02;1.02;;;;;;;30.34;22.72;101393.05;1756386;80;25957;-59
2021/09/05 11:38:33;;;;;;;0.70;0.70;;;;;;;29.30;23.04;101392.78;1769763;80;26226;-59
2021/09/05 11:41:01;;;;;;;2.22;0.82;;;;;;;28.42;23.80;101390.98;1766509;80;26591;-60
2021/09/05 11:43:37;;;;;;;1.17;1.07;;;;;;;28.39;24.47;101391.02;1724980;80;28129;-61
2021/09/05 11:46:15;;;;;;;2.00;0.80;;;;;;;28.78;24.02;101384.44;1751021;80;25892;-60
2021/09/05 11:48:58;;;;;;;0.50;0.50;;;;;;;29.02;23.77;101389.63;1754692;80;25736;-61
2021/09/05 11:51:25;;;;;;;1.10;1.00;;;;;;;29.27;23.70;101381.67;1755124;80;26327;-62
2021/09/05 11:54:02;;;;;;;0.42;0.40;;;;;;;29.42;23.27;101385.33;1761388;80;26421;-63
2021/09/05 12:05:19;;;;;;;0.75;0.60;;;;;;;29.95;22.32;101386.55;1748601;79;26300;-57
2021/09/05 12:07:46;;;;;;;0.95;0.82;;;;;;;30.15;22.54;101383.92;1752799;80;25876;-58
2021/09/05 12:10:16;;;;;;;0.65;0.65;;;;;;;30.35;22.22;101379.87;1758619;80;27487;-57
2021/09/05 12:12:44;;;;;;;1.72;0.40;;;;;;;30.43;22.12;101382.79;1760247;80;25752;-58
2021/09/05 12:15:18;;;;;;;5.28;3.62;;;;;;;30.56;21.96;101379.41;1762880;80;25842;-56
2021/09/05 12:17:48;;;;;;;12.37;9.95;;;;;;;30.54;22.10;101383.41;1765922;80;25989;-56
2021/09/05 12:20:17;;;;;;;1.47;1.12;;;;;;;30.57;21.58;101369.23;1761414;80;25759;-57
2021/09/05 12:22:46;;;;;;;;;;;;;;;30.69;21.68;101366.45;1766352;80;27521;-57
2021/09/05 12:25:17;;;;;;;1.57;0.80;;;;;;;30.78;21.38;101361.73;1762977;80;25708;-53
2021/09/05 12:28:03;;;;;;;1.00;0.80;;;;;;;30.69;21.62;101365.84;1754480;80;25849;-53
2021/09/05 12:30:40;;;;;;;2.12;0.90;;;;;;;30.78;21.61;101363.13;1759733;79;26580;-50
2021/09/05 12:42:48;;;;;;;0.95;0.65;;;;;;;30.91;20.94;101355.12;1749555;78;26895;-57
2021/09/05 12:45:14;;;;;;;1.25;0.70;;;;;;;30.94;20.97;101352.72;1743025;80;26640;-57
2021/09/05 12:47:41;;;;;;;0.57;0.57;;;;;;;30.97;20.82;101356.06;1740649;81;25871;-58
2021/09/05 12:50:09;;;;;;;0.80;0.62;;;;;;;30.96;20.46;101356.67;1758062;80;27465;-59
2021/09/05 12:52:39;;;;;;;2.75;0.70;;;;;;;30.92;20.57;101360.09;1735744;81;25728;-57
2021/09/05 12:55:07;;;;;;;1.12;0.68;;;;;;;30.77;19.94;101360.14;1740250;80;25787;-56
2021/09/05 12:57:34;;;;;;;0.82;0.42;;;;;;;30.50;19.67;101356.78;1757391;80;26207;-57
2021/09/05 13:00:01;;;;;;;1.15;0.70;;;;;;;30.15;20.33;101356.84;1756735;80;25685;-57
2021/09/05 13:02:27;;;;;;;1.67;0.80;;;;;;;30.14;20.26;101355.25;1755743;80;27612;-57
2021/09/05 13:04:54;;;;;;;2.22;0.62;;;;;;;30.11;20.57;101356.08;1755637;80;25743;-60
2021/09/05 13:07:20;;;;;;;3.98;0.62;;;;;;;30.15;20.50;101356.84;1761439;80;25889;-56
2021/09/05 13:09:46;;;;;;;0.60;0.57;;;;;;;30.02;20.36;101364.77;1756337;80;25841;-56
2021/09/05 13:23:50;;;;;;;0.70;0.60;;;;;;;29.65;20.70;101354.63;1764584;77;25834;-66
2021/09/05 13:26:21;;;;;;;1.52;0.85;;;;;;;29.56;20.62;101355.73;1753363;80;25758;-64
2021/09/05 13:28:48;;;;;;;0.62;0.50;;;;;;;29.38;20.55;101353.90;1755021;80;25723;-56
2021/09/05 13:31:15;;;;;;;3.15;1.40;;;;;;;29.41;20.82;101350.30;1759103;80;27594;-56
2021/09/05 13:33:42;;;;;;;1.27;0.75;;;;;;;29.40;21.25;101354.27;1759506;80;26129;-55
2021/09/05 13:36:09;;;;;;;2.20;0.90;;;;;;;29.49;21.28;101353.81;1769132;77;25831;-58
2021/09/05 13:38:36;;;;;;;1.67;0.80;;;;;;;29.56;21.25;101350.16;1763220;77;25853;-59
2021/09/05 15:00:10;;;;;;;2.92;1.57;;;;;;;25.24;23.90;101347.91;1755194;78;25964;-62
2021/09/05 15:02:44;;;;;;;3.58;2.75;;;;;;;24.96;23.99;101344.31;1760374;80;26042;-60
2021/09/05 15:05:41;;;;;;;3.72;3.40;;;;;;;24.77;24.40;101342.00;1759054;80;25862;-60
2021/09/05 15:11:00;;;;;;;2.37;1.07;;;;;;;24.38;24.54;101338.22;1757363;80;25820;-62
2021/09/05 15:21:31;;;;;;;1.37;1.10;;;;;;;23.61;25.72;101343.73;1734282;79;26520;-64
2021/09/05 15:23:54;;;;;;;1.55;1.00;;;;;;;23.35;26.58;101338.42;1749887;80;25759;-63
2021/09/05 15:26:23;;;;;;;1.75;1.02;;;;;;;23.21;26.72;101335.46;1764439;80;25792;-62
2021/09/05 15:29:08;;;;;;;2.08;1.15;;;;;;;23.08;26.65;101341.16;1753545;80;27677;-62
2021/09/05 15:34:31;;;;;;;2.17;0.80;;;;;;;22.74;26.60;101346.45;1752319;80;26050;-63
2021/09/05 15:39:29;;;;;;;2.67;0.80;;;;;;;22.42;27.04;101345.08;1676408;83;25862;-61
2021/09/05 16:16:32;;;;;;;2.17;1.72;;;;;;;19.36;32.75;101346.84;1656015;82;26198;-60
2021/09/05 16:18:53;;;;;;;6.20;2.62;;;;;;;19.11;32.72;101348.77;1706043;82;25873;-60
2021/09/05 16:21:20;;;;;;;3.87;1.90;;;;;;;18.89;33.35;101350.78;1713531;82;25760;-59
2021/09/05 16:23:46;;;;;;;4.22;2.22;;;;;;;18.67;34.38;101348.64;1705983;82;27532;-60
2021/09/05 16:26:13;;;;;;;2.05;0.93;;;;;;;18.50;34.53;101356.25;1713106;82;27476;-60
2021/09/05 16:32:38;;;;;;;1.10;0.80;;;;;;;18.11;35.27;101356.41;1700644;83;25807;-66
2021/09/05 16:35:02;;;;;;;1.00;0.90;;;;;;;17.83;35.97;101354.17;1706777;82;25971;-65
2021/09/05 16:37:34;;;;;;;1.30;0.98;;;;;;;17.62;36.14;101358.26;1713607;82;27463;-64
2021/09/05 16:42:41;;;;;;;2.67;0.80;;;;;;;17.25;37.39;101353.85;1712575;82;25782;-65
2021/09/05 16:45:08;;;;;;;2.80;1.05;;;;;;;17.08;38.29;101359.40;1715862;82;25745;-64
2021/09/05 16:47:34;;;;;;;5.37;0.90;;;;;;;16.89;38.42;101358.39;1711952;82;25773;-64
2021/09/05 16:50:03;;;;;;;12.05;5.00;;;;;;;16.75;39.20;101360.75;1715281;82;26815;-69
2021/09/05 16:52:30;;;;;;;6.37;2.55;;;;;;;16.58;39.10;101353.92;1711352;82;25844;-70
2021/09/05 16:54:56;;;;;;;1.30;1.00;;;;;;;16.44;39.50;101369.13;1719209;82;25808;-72
2021/09/05 16:57:22;;;;;;;1.30;0.80;;;;;;;16.26;39.82;101366.98;1717141;82;26008;-68
2021/09/05 17:15:23;;;;;;;22.67;12.37;;;;;;;15.15;42.87;101379.42;1740245;80;26508;-67
2021/09/05 17:17:50;;;;;;;7.35;3.67;;;;;;;15.00;43.64;101381.98;1741799;80;32320;-67
2021/09/05 17:20:16;;;;;;;3.42;2.47;;;;;;;14.87;44.28;101383.69;1734698;80;25982;-65
2021/09/05 17:22:42;;;;;;;8.80;2.72;;;;;;;14.73;44.38;101391.94;1738659;81;26490;-68
2021/09/05 17:25:10;;;;;;;8.45;3.45;;;;;;;14.58;44.70;101386.27;1743813;80;25970;-66
2021/09/05 17:27:37;;;;;;;5.75;3.25;;;;;;;14.44;44.73;101388.22;1766179;80;27360;-66
2021/09/05 17:30:07;;;;;;;4.97;3.33;;;;;;;14.30;45.87;101394.55;1763902;79;25993;-66
2021/09/05 17:32:34;;;;;;;10.40;2.95;;;;;;;14.17;45.41;101394.02;1777438;79;25670;-65
2021/09/05 17:35:01;;;;;;;4.00;2.83;;;;;;;14.06;46.23;101395.34;1781055;79;25658;-58
2021/09/05 17:37:27;;;;;;;4.37;3.22;;;;;;;13.94;47.22;101403.47;1780568;79;25782;-59
2021/09/05 17:39:53;;;;;;;5.58;3.77;;;;;;;13.80;47.46;101398.61;1776994;79;27377;-58
2021/09/05 17:42:19;;;;;;;9.83;4.78;;;;;;;13.64;47.11;101397.56;1783069;79;25698;-59
2021/09/05 17:44:46;;;;;;;5.40;4.20;;;;;;;13.56;47.51;101402.34;1779586;79;26061;-59
2021/09/05 18:03:24;;;;;;;11.43;7.37;;;;;;;12.78;50.68;101418.36;1750367;80;25847;-62
2021/09/05 18:05:50;;;;;;;16.55;8.25;;;;;;;12.65;50.98;101422.65;1746027;81;26501;-62
2021/09/05 18:08:16;;;;;;;16.97;9.95;;;;;;;12.54;51.22;101421.18;1727251;80;27342;-61
2021/09/05 18:10:43;;;;;;;24.85;16.23;;;;;;;12.44;52.05;101422.69;1743282;80;25969;-61
2021/09/05 18:27:45;;;;;;;45.73;27.58;;;;;;;11.62;52.92;101434.55;1698341;82;25892;-59
2021/09/05 18:30:13;;;;;;;20.62;13.10;;;;;;;11.54;53.92;101432.75;1710180;82;26179;-60
2021/09/05 18:32:39;;;;;;;21.42;14.33;;;;;;;11.48;54.02;101438.50;1698630;82;26409;-61
2021/09/05 18:35:07;;;;;;;52.05;32.53;;;;;;;11.43;54.52;101437.20;1671815;84;27362;-62
2021/09/05 18:37:35;;;;;;;55.67;36.15;;;;;;;11.36;54.58;101434.83;1715802;81;26041;-65
2021/09/05 18:40:03;;;;;;;20.20;13.15;;;;;;;11.32;55.52;101438.66;1722057;81;25732;-62
2021/09/05 18:42:30;;;;;;;36.83;22.82;;;;;;;11.23;55.82;101443.06;1738229;80;26520;-62
2021/09/05 18:44:56;;;;;;;25.88;16.60;;;;;;;11.16;55.74;101437.17;1723225;81;25926;-62
2021/09/05 19:13:57;;;;;;;53.80;27.35;;;;;;;10.51;56.88;101426.03;1696288;83;25725;-68
2021/09/05 19:16:23;;;;;;;15.05;9.23;;;;;;;10.48;56.96;101431.20;1684052;83;25810;-67
2021/09/05 19:18:49;;;;;;;7.45;5.50;;;;;;;10.44;56.96;101428.25;1697567;82;27262;-67
2021/09/05 19:21:16;;;;;;;9.70;5.90;;;;;;;10.37;57.23;101426.37;1693347;82;25742;-67
2021/09/05 19:23:43;;;;;;;9.60;5.45;;;;;;;10.33;57.60;101430.19;1678020;82;25915;-67
2021/09/05 19:26:10;;;;;;;12.65;6.60;;;;;;;10.30;57.61;101440.20;1685188;82;25891;-69
2021/09/05 19:28:37;;;;;;;12.28;6.40;;;;;;;10.25;57.18;101445.64;1677596;82;25863;-69
2021/09/05 19:31:04;;;;;;;9.63;6.22;;;;;;;10.18;57.57;101439.70;1721775;81;27296;-67
2021/09/05 19:33:30;;;;;;;13.00;6.67;;;;;;;10.16;57.42;101448.09;1738745;80;25671;-67
2021/09/05 19:36:00;;;;;;;9.23;6.20;;;;;;;10.13;57.49;101443.78;1737703;81;26614;-67
2021/09/05 19:38:24;;;;;;;15.10;10.08;;;;;;;10.08;58.02;101445.44;1693893;82;25775;-68
2021/09/05 20:21:47;;;;;;;39.70;23.18;;;;;;;9.06;60.68;101453.75;1727201;78;25819;-66
2021/09/05 20:24:13;;;;;;;50.08;29.25;;;;;;;9.01;60.74;101448.36;1716629;80;25946;-65
2021/09/05 20:26:40;;;;;;;55.75;30.80;;;;;;;8.97;61.28;101451.62;1723701;81;26056;-65
2021/09/05 20:29:06;;;;;;;41.48;25.88;;;;;;;8.93;61.01;101455.91;1721811;81;25736;-66
2021/09/05 20:31:34;;;;;;;39.78;26.68;;;;;;;8.91;61.12;101460.78;1734163;81;26656;-67
2021/09/05 20:34:01;;;;;;;41.20;25.35;;;;;;;8.91;61.28;101463.48;1732029;81;27372;-65
2021/09/05 20:36:28;;;;;;;37.03;22.90;;;;;;;8.90;62.09;101463.19;1719370;82;25827;-66
2021/09/05 20:38:54;;;;;;;30.62;19.87;;;;;;;8.85;61.61;101461.84;1721776;82;25726;-67
2021/09/05 20:41:20;;;;;;;32.88;19.75;;;;;;;8.84;61.49;101460.79;1724322;81;25886;-67
2021/09/05 20:43:48;;;;;;;36.48;20.70;;;;;;;8.82;61.20;101457.01;1721138;81;25824;-66
2021/09/05 20:46:15;;;;;;;38.08;22.02;;;;;;;8.80;61.80;101461.84;1723039;81;27704;-68
2021/09/05 20:48:43;;;;;;;44.13;27.02;;;;;;;8.76;61.91;101466.16;1725685;81;26187;-68
2021/09/05 20:51:11;;;;;;;45.83;26.17;;;;;;;8.74;61.94;101463.73;1719670;81;25860;-67
2021/09/05 20:53:38;;;;;;;45.73;27.98;;;;;;;8.72;62.67;101461.84;1733052;81;25940;-65
2021/09/05 20:56:04;;;;;;;44.63;25.88;;;;;;;8.69;62.82;101464.27;1714241;81;25708;-66
2021/09/05 20:58:31;;;;;;;49.18;26.35;;;;;;;8.66;62.75;101462.09;1715365;82;27266;-65
2021/09/05 21:00:57;;;;;;;50.35;28.02;;;;;;;8.62;62.57;101459.67;1699944;82;25865;-67
2021/09/05 21:03:24;;;;;;;47.90;27.37;;;;;;;8.64;62.57;101458.86;1734697;80;25916;-66
2021/09/05 21:05:51;;;;;;;59.23;32.35;;;;;;;8.60;63.20;101456.70;1717592;82;25752;-66
2021/09/05 21:18:05;;;;;;;48.10;28.73;;;;;;;8.40;63.66;101464.71;1718679;81;26347;-66
2021/09/05 21:20:32;;;;;;;50.50;27.87;;;;;;;8.37;63.82;101463.89;1737313;80;26407;-65
2021/09/05 21:22:59;;;;;;;47.00;28.38;;;;;;;8.32;63.60;101458.48;1719072;81;25765;-66
2021/09/05 21:25:26;;;;;;;49.38;28.07;;;;;;;8.28;63.95;101458.75;1679431;82;27520;-66
2021/09/05 21:27:52;;;;;;;47.67;27.75;;;;;;;8.25;64.09;101461.42;1723629;81;27201;-66
2021/09/05 21:30:20;;;;;;;45.60;25.12;;;;;;;8.21;64.38;101459.80;1722931;80;25910;-66
2021/09/05 21:32:46;;;;;;;40.70;24.77;;;;;;;8.14;64.41;101460.59;1706295;80;25950;-68
2021/09/05 21:52:07;;;;;;;45.45;27.85;;;;;;;7.79;65.02;101463.92;1699619;77;25767;-64
2021/09/05 21:54:36;;;;;;;39.60;27.10;;;;;;;7.75;65.51;101460.14;1691604;83;27389;-64
2021/09/05 21:57:03;;;;;;;37.73;22.25;;;;;;;7.71;65.70;101463.86;1678309;83;26305;-65
2021/09/05 21:59:32;;;;;;;33.50;22.30;;;;;;;7.65;65.46;101469.77;1681520;83;25906;-65
2021/09/05 22:01:59;;;;;;;38.33;22.65;;;;;;;7.62;65.19;101469.48;1689280;83;25771;-65
2021/09/05 22:04:26;;;;;;;36.55;21.50;;;;;;;7.61;65.24;101469.19;1682485;83;25825;-64
2021/09/05 22:06:53;;;;;;;34.35;22.05;;;;;;;7.59;65.57;101474.83;1693508;83;29496;-65
2021/09/05 22:09:20;;;;;;;36.20;22.48;;;;;;;7.56;65.67;101479.42;1689610;84;25893;-65
2021/09/05 22:11:47;;;;;;;36.55;22.10;;;;;;;7.51;65.27;101474.00;1701508;83;26402;-65
2021/09/05 22:14:14;;;;;;;39.65;22.98;;;;;;;7.48;65.13;101475.86;1687419;83;25960;-65
2021/09/05 22:16:40;;;;;;;33.90;21.60;;;;;;;7.46;66.12;101477.45;1687645;84;25716;-65
2021/09/05 22:40:53;;;;;;;31.87;19.25;;;;;;;7.04;66.27;101478.75;1730980;76;26846;-64
2021/09/05 22:43:22;;;;;;;30.52;18.12;;;;;;;6.97;66.15;101476.27;1717528;81;25650;-64
2021/09/05 22:45:51;;;;;;;31.13;19.80;;;;;;;6.91;65.54;101476.77;1722635;81;28039;-64
2021/09/05 22:48:18;;;;;;;32.30;20.15;;;;;;;6.91;65.28;101475.93;1717581;81;26098;-64
2021/09/05 22:50:47;;;;;;;31.80;18.67;;;;;;;6.87;65.12;101478.86;1734498;81;25763;-64
2021/09/05 22:53:13;;;;;;;29.57;18.52;;;;;;;6.84;65.42;101473.45;1740943;81;26599;-65
2021/09/05 22:55:40;;;;;;;30.55;18.42;;;;;;;6.80;65.01;101473.69;1736941;81;25861;-65
2021/09/05 22:58:06;;;;;;;31.37;19.37;;;;;;;6.77;65.01;101478.22;1735055;81;27896;-65
2021/09/05 23:00:37;;;;;;;29.42;18.37;;;;;;;6.75;65.88;101472.84;1731166;81;26593;-65
2021/09/05 23:03:04;;;;;;;32.55;18.62;;;;;;;6.70;65.72;101476.28;1737891;81;26041;-65
2021/09/05 23:05:30;;;;;;;32.65;18.27;;;;;;;6.64;65.79;101474.59;1713282;81;25763;-65
2021/09/05 23:07:58;;;;;;;27.75;17.05;;;;;;;6.58;65.59;101472.39;1735302;81;26526;-65
2021/09/05 23:10:24;;;;;;;29.70;18.20;;;;;;;6.54;65.20;101468.60;1742084;81;27170;-65
2021/09/05 23:12:50;;;;;;;36.75;18.00;;;;;;;6.49;65.28;101463.97;1728813;81;25924;-65
2021/09/05 23:29:19;;;;;;;63.38;25.48;;;;;;;6.31;66.12;101468.34;1710974;82;25843;-65
2021/09/05 23:31:46;;;;;;;62.62;26.95;;;;;;;6.28;66.73;101464.29;1701228;80;26547;-65
2021/09/05 23:34:12;;;;;;;65.47;27.55;;;;;;;6.25;66.73;101460.75;1705850;82;26567;-65
2021/09/05 23:36:38;;;;;;;82.20;32.98;;;;;;;6.21;66.67;101460.16;1703943;81;27380;-65
2021/09/05 23:39:05;;;;;;;97.25;38.00;;;;;;;6.19;66.48;101453.69;1703624;82;25817;-65
2021/09/05 23:41:31;;;;;;;105.43;43.83;;;;;;;6.17;66.81;101455.82;1701458;82;25844;-65
2021/09/05 23:43:57;;;;;;;90.97;39.65;;;;;;;6.14;66.83;101453.63;1686125;82;25881;-65
2021/09/05 23:46:23;;;;;;;71.60;31.65;;;;;;;6.13;66.81;101456.02;1704332;82;26380;-65
2021/09/05 23:48:50;;;;;;;52.33;25.05;;;;;;;6.12;67.26;101461.94;1657287;83;27385;-65
2021/09/05 23:51:17;;;;;;;44.40;21.45;;;;;;;6.11;67.21;101456.81;1673232;83;25896;-65
2021/09/05 23:53:43;;;;;;;43.45;21.12;;;;;;;6.08;67.27;101455.96;1707676;83;25826;-64
2021/09/05 23:56:10;;;;;;;37.58;20.20;;;;;;;6.07;66.99;101458.39;1714935;82;26366;-64
2021/09/05 23:58:37;;;;;;;39.20;18.60;;;;;;;6.05;66.73;101465.89;1694272;83;26601;-65
